Timeline UpdatesTrip UpdatesNews PostsPvt PostsTravel TipsAdmin PostsConv PostsFollowed PostsChat RequestsBlog PostsPNR Posts

Disclaimer
Search
 
 
Sun Aug 31, 2014 05:45:22 ISTHomeTrainsΣChainsAtlasPNRForumGalleryNewsFAQTripsMembersLoginFeedback
No Recent News for this Train
Other Trains in the News **new
Latest...
Cancelled on 26/8/14
Mon Aug 25, 2014 (05:36PM)
⇐ Return Journey: Train# 15484

14083⇒15483/Sikkim Mahananda Express

Jan 14 2014 (8:05PM)
Change Departure Station:
Change Arrival Station:
Post a Train Travel TipPost a Train Travel Tip **new
Post a Comment/Question/Picture/VideoPost a Comment/Question/Picture/Video
Pantry/Catering
✓ Pantry Car Avbl
✓ Catering Avbl
RSA - Rake Sharing
Rake/Coach Composition
LOCO-SLR-GS-GS-GS-AB-B1-PC-S11-S10-S9-S8-S7-S6-S5-S4-S3-S2-S1-GS-GS-GS-SLR
Loco
SGUJ WDP-4 (APDJ to PNBE), GZB/MGS WAP-4 (PNBE to DLI)
News    PNR    Forum    Time-Table    Availability    Fare Chart    Map    Arr/Dep History    Trips    Gallery    ΣChains    X/O    Timeline    
Travel Time: 16h 5m    29 halts    Distance: 658 km    Avg Speed: 40 km/hr
Type: Mail/Express
Zone: NFR/Northeast Frontier
Departs @ 07:15
Platform# 1
SMTWTFS
Alipur Duar Junction/APDJ 
Arrives @ 23:20
Platform# 4
SMTWTFS
Patna Junction/PNBE 

29 halts. 130 intermediate Stations between Alipur Duar Junction and Patna Junction

Show ALL intermediate Stations  Show Old Time-Table

#CodeStation NameX/OArrivesAvgDepartsAvgHaltPFDay#KmSpeedElevZoneAddress
1APDJ»Alipur Duar Junction (3)»  -07:15-110.06053mNFRDist - Alipurduar, West Bengal
2HSAHasimara (3)X  07:50-07:52-2m--134.856123mNFRDist - Alipurduar, West Bengal
3DLODalgaon (3)  08:19-08:20-1m1160.149 NFRDist : Alipurduar, West Bengal
4BNVBinnaguri (3)  08:31-08:32-1m--169.162132mNFRDist : jalpaiguri, West Bengal
5NMZNew Mal Junction (3)X  09:15-09:20-5m--1113.441161mNFRDist - Jalpaiguri, West Bengal
6SGUJSiliguri Junction (5)X  10:30-10:35-5m--1161.229120mNFRDist-Darjeeling Siliguri-734001, West Bengal
7NJPNew Jalpaiguri Junction (8)X  10:50-11:10-20m31168.576114mNFRCity-Siliguri . Dist-Jalpaiguri, West Bengal
8AUBAluabari Road (2)  11:55-11:57-2m21225.2730mNFRDist - uttar Dinajpur, West Bengal
9KNEKishanGanj (3)X  12:22-12:27-5m21255.86852mNFRKishanganj, Bihar
10DLKDalkhola (3)X  12:52-12:53-1m101284.37644mNFRDalkola, West Bengal
11BOEBarsoi Junction (3)  13:16-13:18-2m--1313.45737mNFRdist- katihar, Bihar
12AZRAzamnagar Road (3)  13:32-13:33-1m--1326.73534mNFRAzamnagar, Bihar
13LAVLabha (2)  14:09-14:10-1m11347.81829mNFRDist : Katihar, Bihar
14KIRKatihar Junction (7)XO  15:25-15:45-20m51370.64335mNFRKatihar 854105, Bihar
15SMOSemapur16:01-16:03-2m--1382.1-35mECRKatihar, Bihar
16CRRKaragola Road  16:06-16:07-1m--1392.96836mECRLachhmipur, Bihar
17KUEKurselaX  16:22-16:23-1m--1409.87431mECRNH 31, Bihar
18NNANaugachia (3)  16:38-16:39-1m--1428.46037mECRBhagalpur, Bihar
19THBThana Bihpur Junction (3)XO  16:55-16:56-1m--1444.31639mECRThana Bihpur, Bihar
20NNRNarayanpur (2)  17:24-17:25-1m--1451.95039mECRNarayanpur, Bihar
21PSRPasraha (3)X  17:39-17:40-1m--1463.55341mECRPasraha, Bihar
22MSKMahes Khunt (2)  17:54-17:55-1m--1475.95737mECRMaheshkhunt, Bihar
23MNEMansi Junction (4)X  18:06-18:07-1m--1486.33143mECRMansi, Bihar
24KGGKhagaria Junction (3)X  18:24-18:25-1m--1495.15343mECRKhagaria, Bihar
25SKJSahibpur Kamal Junction (2)  18:39-18:40-1m--1507.54241mECRShahpur Kamal, Bihar
26LKNLakhminia (3)  18:54-18:55-1m--1517.22245mECRBegusarai, Bihar
27BGSBegusarai (3)X  19:44-19:45-1m--1535.01546mECRBegusarai, Bihar
28BJUBarauni Junction (9)X  20:40-20:45-5m11548.41949mECRBegusarai, Bihar
29MKAMokama Junction (4)X  21:51-21:53-2m31569.18848mECRPatna, Bihar
30BKPBakhtiyarpur Junction (5)  22:23-22:25-2m--1613.24951mECRPatna, Bihar
31PNBE•Patna Junction (10)•X  23:20-23:45-25m41658.33557mECRPatna 800001, Bihar
32DNRDanapur (5)  00:01-00:03-2m--2667.79158mECRKhagaul, Bihar
33ARAAra Junction (3)  00:29-00:31-2m--2707.37163mECRarrah( 06182-233411), Bihar
34BXRBuxar (3)X  01:29-01:32-3m--2775.84267mECRBuxar, Bihar
35MGSMughal Sarai Junction (8)X  03:45-04:00-15m42869.76483mECRMughalsarai 232101, Uttar Pradesh
36MZPMirzapur (3)  04:59-05:00-1m--2932.94088mNCRMirzapur, Uttar Pradesh
37BDLVindhyachal (3)X  05:11-05:12-1m--2940.28888mNCRMirzapur, Uttar Pradesh
38NYNNaini Junction (4)  06:03-06:05-2m221014.91798mNCRAllahabad, Uttar Pradesh
39ALDAllahabad Junction (10)X  06:30-06:35-5m321022.089100mNCRAllahabad 211003, Uttar Pradesh
40FTPFatehpur (3)  07:54-07:55-1m--21138.862120mNCRFatehpur, Uttar Pradesh
41CNBKanpur Central (10)  09:10-09:20-10m521216.441128mNCRKANPUR-208 001, Uttar Pradesh
42PNKPanki (3)X  09:37-09:38-1m--21227.976129mNCRKANPUR-208 020, Uttar Pradesh
43RURARura (4)X  10:04-10:05-1m--21260.771137mNCRJhinjhak, Uttar Pradesh
44JJKJhinjhak (3)  10:21-10:22-1m321279.759140mNCRAuraiya, Uttar Pradesh
45PHDPhaphund (4)X  10:42-10:43-1m--21299.653146mNCRdist. Auraiya, Uttar Pradesh
46ULDAchalda (3)X  11:02-11:03-1m--21316.365147mNCRDist. Auraiya(05688-1072), Uttar Pradesh
47BNTBharthana (3)X  11:21-11:22-1m--21335.952147mNCRBharthana, Uttar Pradesh
48ETWEtawah (5)X  11:45-11:46-1m221355.772154mNCRDistt. Etawah, Uttar Pradesh
49SKBShikohabad Junction (4)  12:32-12:33-1m321411.157166mNCRDistrict Firozabad, Uttar Pradesh
50FZDFirozabad (4)O  12:54-12:55-1m321431.025164mNCRFirozabad, Uttar Pradesh
51TDLTundla Junction (5)  13:35-13:45-10m221447.670167mNCRDistt.Firozabad, Uttar Pradesh
52JLSJalesar Road (1)X  14:09-14:10-1m121475.463172mNCRMDR 106W, Uttar Pradesh
53HRSHathras Junction (3)  14:29-14:30-1m--21495.560183mNCRMahamaya Nagar(05722-242803), Uttar Pradesh
54ALJNAligarh Junction (4)O  15:00-15:05-5m221525.775192mNCRAligarh, Uttar Pradesh
55KRJKhurja Junction (4)XO  15:40-15:45-5m--21569.238199mNCRBulandshahr, Uttar Pradesh
56GZBGhaziabad Junction (6)X  17:25-17:30-5m321631.943217mNRGhaziabad, Uttar Pradesh
57DSAShahdara Junction (4)  17:49-17:50-1m--21645.519212mNRCircular Rd, Delhi NCT
58DLIOld Delhi Junction (16)  18:10--1121651.8-219mNRNear Chandni Chowk Metro Station, Delhi NCT
Scroll to Top
Scroll to Bottom